Time;durP1;ratioP1;P1;durP2;ratioP2;P2;SDS_P1;SDS_P2;PMS_P1;PMS_P2;Temp;Humidity;BMP_temperature;BMP_pressure;BME280_temperature;BME280_humidity;BME280_pressure;Samples;Min_cycle;Max_cycle;Signal;HPM_P1;HPM_P2
2022/05/16 00:01:53;;;;;;;11.43;2.97;;;15.40;91.50;;;;;;4326980;28;10000505;-70
2022/05/16 00:04:19;;;;;;;7.93;2.75;;;15.40;91.50;;;;;;5024434;28;20362;-70
2022/05/16 00:06:44;;;;;;;11.23;2.92;;;15.50;91.70;;;;;;5026868;28;20473;-71
2022/05/16 00:09:10;;;;;;;10.15;3.08;;;15.50;91.60;;;;;;5021248;28;20079;-70
2022/05/16 00:11:36;;;;;;;9.13;2.60;;;15.40;91.60;;;;;;5026184;28;20053;-71
2022/05/16 00:14:01;;;;;;;12.23;3.20;;;15.50;91.60;;;;;;5026949;28;20067;-71
2022/05/16 00:16:27;;;;;;;10.48;2.75;;;15.40;91.40;;;;;;5024725;28;20393;-70
2022/05/16 00:18:53;;;;;;;6.13;2.50;;;15.50;91.50;;;;;;5023122;28;20021;-71
2022/05/16 00:21:19;;;;;;;9.10;2.90;;;15.40;91.50;;;;;;5024271;28;20420;-71
2022/05/16 00:23:44;;;;;;;11.25;2.83;;;15.40;91.60;;;;;;5028717;28;20486;-71
2022/05/16 00:26:10;;;;;;;6.63;2.60;;;15.40;91.80;;;;;;5026946;28;20087;-71
2022/05/16 00:28:36;;;;;;;6.82;2.15;;;15.30;92.00;;;;;;5021878;28;20033;-71
2022/05/16 00:31:01;;;;;;;9.32;2.63;;;15.30;92.10;;;;;;5027782;28;20492;-71
2022/05/16 00:33:27;;;;;;;5.53;2.40;;;15.20;92.30;;;;;;5025510;28;20021;-71
2022/05/16 00:35:52;;;;;;;6.15;2.20;;;15.10;92.50;;;;;;5026137;28;20025;-71
2022/05/16 00:38:18;;;;;;;9.30;2.70;;;15.10;92.80;;;;;;5025647;28;20032;-71
2022/05/16 00:40:44;;;;;;;12.20;3.38;;;15.10;93.10;;;;;;5022363;28;20044;-72
2022/05/16 00:43:12;;;;;;;9.68;2.78;;;15.00;93.00;;;;;;5026977;28;20045;-71
2022/05/16 00:45:39;;;;;;;11.43;3.13;;;15.00;92.90;;;;;;5027533;28;20036;-71
2022/05/16 00:48:06;;;;;;;7.65;2.30;;;15.00;93.10;;;;;;5026242;28;20025;-71
2022/05/16 00:50:33;;;;;;;6.47;2.38;;;15.00;93.10;;;;;;5022603;28;20088;-71
2022/05/16 00:52:59;;;;;;;6.40;2.40;;;15.00;93.10;;;;;;5024127;28;20123;-72
2022/05/16 00:55:30;;;;;;;7.50;2.55;;;15.00;93.10;;;;;;5026687;28;20056;-70
2022/05/16 00:58:02;;;;;;;5.95;2.50;;;15.00;93.20;;;;;;5026547;28;20025;-71
2022/05/16 01:00:35;;;;;;;8.25;2.40;;;14.90;93.30;;;;;;5023163;28;20171;-70
2022/05/16 01:05:50;;;;;;;8.15;2.45;;;14.80;93.70;;;;;;5025261;28;21034;-71
2022/05/16 01:08:19;;;;;;;12.05;3.08;;;14.80;96.20;;;;;;5021896;28;20059;-70
2022/05/16 01:10:45;;;;;;;8.60;2.85;;;14.70;94.50;;;;;;5024179;28;20025;-71
2022/05/16 01:13:12;;;;;;;8.15;2.70;;;14.60;94.50;;;;;;5023577;28;20390;-70
2022/05/16 01:15:47;;;;;;;6.22;2.65;;;14.70;96.10;;;;;;5025751;28;20029;-70
2022/05/16 01:18:16;;;;;;;7.95;2.47;;;14.60;94.80;;;;;;5025364;28;20025;-71
2022/05/16 01:21:00;;;;;;;9.80;3.03;;;14.60;95.80;;;;;;5021879;28;20076;-70
2022/05/16 01:23:28;;;;;;;11.07;2.90;;;14.60;96.50;;;;;;5022479;28;20033;-71
2022/05/16 01:25:54;;;;;;;9.07;2.97;;;14.60;97.40;;;;;;5043464;28;20123;-70
2022/05/16 01:28:23;;;;;;;11.52;3.00;;;14.60;99.10;;;;;;5042761;28;20025;-71
2022/05/16 01:30:50;;;;;;;7.57;2.50;;;14.60;99.80;;;;;;5045094;28;20017;-71
2022/05/16 01:33:21;;;;;;;10.20;2.90;;;14.60;99.20;;;;;;5039710;28;20021;-71
2022/05/16 01:35:47;;;;;;;7.80;2.78;;;14.60;99.90;;;;;;5035144;28;20033;-71
2022/05/16 01:38:19;;;;;;;5.57;2.10;;;14.60;99.90;;;;;;5039923;28;20417;-71
2022/05/16 01:40:46;;;;;;;6.90;2.50;;;14.60;99.90;;;;;;5036807;28;20144;-70
2022/05/16 01:43:13;;;;;;;5.95;2.60;;;14.50;99.90;;;;;;5039259;28;20052;-71
2022/05/16 01:45:44;;;;;;;7.50;2.80;;;14.50;99.90;;;;;;5045413;28;20061;-71
2022/05/16 01:48:11;;;;;;;8.15;2.65;;;14.50;99.90;;;;;;5045743;28;20029;-70
2022/05/16 01:50:37;;;;;;;9.70;2.95;;;14.40;99.90;;;;;;5038579;28;20017;-71
2022/05/16 01:53:03;;;;;;;8.35;2.22;;;;;;;;;;5044055;28;20418;-71
2022/05/16 01:55:29;;;;;;;4.32;2.53;;;;;;;;;;5045365;28;20021;-71
2022/05/16 01:57:55;;;;;;;6.57;2.90;;;14.00;96.60;;;;;;5042162;28;20025;-71
2022/05/16 02:00:21;;;;;;;6.43;2.58;;;14.00;97.10;;;;;;5039980;28;20732;-71
2022/05/16 02:02:47;;;;;;;7.03;2.88;;;14.00;97.30;;;;;;5046974;28;20043;-71
2022/05/16 02:05:16;;;;;;;7.72;2.75;;;14.00;97.40;;;;;;5038822;28;20033;-71
2022/05/16 02:07:42;;;;;;;8.90;2.85;;;14.00;97.60;;;;;;5037195;28;20037;-71
2022/05/16 02:10:10;;;;;;;11.30;2.88;;;14.00;97.60;;;;;;5034046;28;20028;-70
2022/05/16 02:12:36;;;;;;;8.10;2.85;;;14.10;97.40;;;;;;5045399;28;20436;-71
2022/05/16 02:15:05;;;;;;;7.00;2.70;;;14.10;97.20;;;;;;5042124;28;20036;-70
2022/05/16 02:17:30;;;;;;;6.50;2.72;;;14.10;97.40;;;;;;5040334;28;20029;-71
2022/05/16 02:19:56;;;;;;;6.90;2.40;;;14.10;97.60;;;;;;5037849;28;20028;-70
2022/05/16 02:25:07;;;;;;;7.22;2.72;;;14.00;98.00;;;;;;5028913;28;20098;-71
2022/05/16 02:27:32;;;;;;;8.23;2.40;;;14.00;98.30;;;;;;5023505;28;20057;-70
2022/05/16 02:29:58;;;;;;;6.95;2.50;;;14.00;98.40;;;;;;5017430;28;20060;-70
2022/05/16 02:32:24;;;;;;;6.75;2.53;;;13.90;98.60;;;;;;5026752;28;20446;-71
2022/05/16 02:34:50;;;;;;;8.57;2.67;;;13.90;98.70;;;;;;5025384;28;20025;-71
2022/05/16 02:37:16;;;;;;;9.57;2.70;;;13.90;98.90;;;;;;5024733;28;20064;-70
2022/05/16 02:39:44;;;;;;;7.63;2.83;;;13.90;99.10;;;;;;5019982;28;20133;-71
2022/05/16 02:42:12;;;;;;;9.13;3.22;;;13.90;99.10;;;;;;5027621;28;20025;-71
2022/05/16 02:44:38;;;;;;;7.00;2.95;;;13.90;99.30;;;;;;5021656;28;20108;-71
2022/05/16 02:47:05;;;;;;;7.43;2.72;;;13.90;99.10;;;;;;5022463;28;20033;-70
2022/05/16 02:49:31;;;;;;;7.72;3.03;;;13.90;99.30;;;;;;5019217;28;20043;-71
2022/05/16 02:51:57;;;;;;;5.40;2.30;;;13.90;99.50;;;;;;5018951;28;20045;-71
2022/05/16 02:54:23;;;;;;;8.52;2.50;;;13.80;99.60;;;;;;5011219;28;20427;-71
2022/05/16 02:56:49;;;;;;;7.70;2.65;;;13.70;99.90;;;;;;5015952;28;20485;-71
2022/05/16 02:59:15;;;;;;;7.63;2.45;;;13.70;99.90;;;;;;5017206;28;20037;-71
2022/05/16 03:01:41;;;;;;;8.48;2.63;;;13.70;99.90;;;;;;5024236;28;20383;-71
2022/05/16 03:04:07;;;;;;;6.70;2.50;;;13.70;99.90;;;;;;5016919;28;20036;-71
2022/05/16 03:06:34;;;;;;;10.63;3.10;;;13.60;99.90;;;;;;5020445;28;20025;-71
2022/05/16 03:09:00;;;;;;;7.05;3.10;;;13.70;99.90;;;;;;5019015;28;20510;-71
2022/05/16 03:11:26;;;;;;;8.55;2.67;;;13.70;99.90;;;;;;5001820;28;20030;-71
2022/05/16 03:13:52;;;;;;;10.15;3.20;;;13.70;99.90;;;;;;5022631;28;20071;-71
2022/05/16 03:16:18;;;;;;;13.60;3.28;;;13.70;99.90;;;;;;5025690;28;20030;-71
2022/05/16 03:18:43;;;;;;;4.72;2.55;;;13.70;99.90;;;;;;5015041;28;20079;-71
2022/05/16 03:21:09;;;;;;;6.03;2.42;;;13.70;99.90;;;;;;5016328;28;20032;-71
2022/05/16 03:23:35;;;;;;;7.13;2.97;;;13.60;99.90;;;;;;5019159;28;20124;-71
2022/05/16 03:26:01;;;;;;;5.90;2.42;;;13.60;99.90;;;;;;5024558;28;20123;-71
2022/05/16 03:28:26;;;;;;;7.68;3.00;;;13.60;99.90;;;;;;5022731;28;20037;-70
2022/05/16 03:30:55;;;;;;;5.82;2.42;;;13.50;99.90;;;;;;5022751;28;20032;-70
2022/05/16 03:33:21;;;;;;;8.07;2.53;;;13.50;99.90;;;;;;5024693;28;20040;-71
2022/05/16 03:35:47;;;;;;;6.88;2.55;;;13.50;99.90;;;;;;5025356;28;20026;-71
2022/05/16 03:40:41;;;;;;;7.22;2.50;;;13.50;99.90;;;;;;5023928;28;20032;-71
2022/05/16 03:40:58;;;;;;;7.00;2.80;;;13.50;99.90;;;;;;5017790;28;20045;-70
2022/05/16 03:43:24;;;;;;;8.73;3.03;;;13.50;99.90;;;;;;5023356;28;20616;-71
2022/05/16 03:45:50;;;;;;;6.22;2.80;;;13.50;99.90;;;;;;5024073;28;20045;-71
2022/05/16 03:48:15;;;;;;;10.15;3.50;;;13.50;99.90;;;;;;5024582;28;20112;-71
2022/05/16 03:50:41;;;;;;;9.13;3.20;;;13.60;99.90;;;;;;5020300;28;20449;-71
2022/05/16 03:53:07;;;;;;;9.90;3.30;;;13.60;99.90;;;;;;5023596;28;20026;-71
2022/05/16 03:55:33;;;;;;;8.93;3.33;;;13.70;99.90;;;;;;5023357;28;20113;-70
2022/05/16 03:57:58;;;;;;;8.75;3.35;;;13.80;99.90;;;;;;5021685;28;20025;-71
2022/05/16 04:00:24;;;;;;;12.15;3.72;;;13.80;99.90;;;;;;5015799;28;20095;-71
2022/05/16 04:02:51;;;;;;;9.70;3.20;;;13.90;99.90;;;;;;5020528;28;20140;-70
2022/05/16 04:05:19;;;;;;;6.50;3.03;;;13.90;99.90;;;;;;5017674;28;20037;-71
2022/05/16 04:07:47;;;;;;;7.85;3.13;;;13.90;99.90;;;;;;5017788;28;20041;-71
2022/05/16 04:10:14;;;;;;;10.98;3.47;;;13.80;99.90;;;;;;5022555;28;20026;-71
2022/05/16 04:12:40;;;;;;;11.38;3.17;;;13.80;99.90;;;;;;5024891;28;20034;-70
2022/05/16 04:15:07;;;;;;;13.07;3.25;;;13.90;99.90;;;;;;5021947;28;20025;-70
2022/05/16 04:17:33;;;;;;;9.07;3.25;;;13.90;99.90;;;;;;5026923;28;20056;-71
2022/05/16 04:19:59;;;;;;;8.30;3.22;;;13.90;99.90;;;;;;5022003;28;20116;-71
2022/05/16 04:22:25;;;;;;;8.63;2.97;;;14.00;99.90;;;;;;5023848;28;20840;-71
2022/05/16 04:24:51;;;;;;;10.27;3.17;;;14.00;99.90;;;;;;5026359;28;20125;-71
2022/05/16 04:27:17;;;;;;;7.90;2.88;;;14.20;99.90;;;;;;5020395;28;20114;-71
2022/05/16 04:29:43;;;;;;;11.65;3.40;;;15.50;99.90;;;;;;5021107;28;20033;-71
2022/05/16 04:32:09;;;;;;;8.70;3.40;;;17.00;98.90;;;;;;5020485;28;20048;-71
2022/05/16 04:34:35;;;;;;;8.43;3.30;;;18.10;96.90;;;;;;5016413;28;20030;-71
2022/05/16 04:37:00;;;;;;;10.25;3.03;;;18.50;96.10;;;;;;5024632;28;20212;-71
2022/05/16 04:39:26;;;;;;;9.88;3.58;;;18.20;96.00;;;;;;5019259;28;20124;-70
2022/05/16 04:44:38;;;;;;;11.20;3.53;;;17.50;96.20;;;;;;5027964;28;20132;-71
2022/05/16 04:47:06;;;;;;;12.05;3.30;;;17.20;96.50;;;;;;5025605;28;20418;-70
2022/05/16 04:49:32;;;;;;;10.77;3.63;;;16.90;96.80;;;;;;5019947;28;20022;-70
2022/05/16 04:51:58;;;;;;;9.20;3.53;;;16.70;97.00;;;;;;5026883;28;20470;-71
2022/05/16 04:54:24;;;;;;;11.18;3.55;;;16.50;97.30;;;;;;5022114;28;20033;-71
2022/05/16 04:56:51;;;;;;;8.13;3.60;;;16.50;97.30;;;;;;5018801;28;20053;-71
2022/05/16 04:59:17;;;;;;;13.25;3.60;;;16.40;97.90;;;;;;5019848;28;20084;-71
2022/05/16 05:01:43;;;;;;;11.57;3.40;;;16.40;98.40;;;;;;5021300;28;20041;-71
2022/05/16 05:04:09;;;;;;;12.18;3.70;;;16.30;98.70;;;;;;5025630;28;20040;-70
2022/05/16 05:06:35;;;;;;;8.95;3.45;;;16.30;99.00;;;;;;5022404;28;20033;-71
2022/05/16 05:09:01;;;;;;;10.18;3.47;;;16.40;98.80;;;;;;5022554;28;20032;-70
2022/05/16 05:16:54;;;;;;;9.50;2.90;;;16.50;98.90;;;;;;5024359;28;20028;-69
2022/05/16 05:19:20;;;;;;;9.25;3.53;;;16.50;98.70;;;;;;5020964;28;20030;-69
2022/05/16 05:21:46;;;;;;;21.63;3.50;;;16.50;98.80;;;;;;5016031;28;20090;-69
2022/05/16 05:24:11;;;;;;;9.77;3.40;;;16.60;99.50;;;;;;5022678;28;20216;-70
2022/05/16 05:26:39;;;;;;;8.70;3.40;;;16.60;99.90;;;;;;5023086;28;20033;-69
2022/05/16 05:29:05;;;;;;;10.02;3.63;;;;;;;;;;5021171;28;20030;-70
2022/05/16 05:31:31;;;;;;;11.07;3.30;;;16.60;99.60;;;;;;5027616;28;20033;-70
2022/05/16 05:33:57;;;;;;;8.57;3.42;;;16.70;99.90;;;;;;5027128;28;20359;-69
2022/05/16 05:36:25;;;;;;;10.15;3.63;;;16.70;99.60;;;;;;5025224;28;20061;-70
2022/05/16 05:38:51;;;;;;;10.20;3.53;;;16.70;98.90;;;;;;5021986;28;20060;-72
2022/05/16 05:41:19;;;;;;;10.38;3.30;;;16.80;99.50;;;;;;5017408;28;20057;-71
2022/05/16 05:43:44;;;;;;;12.18;3.53;;;16.90;98.70;;;;;;5025369;28;20036;-71
2022/05/16 05:46:10;;;;;;;6.95;2.75;;;17.00;98.80;;;;;;5021765;28;20393;-71
2022/05/16 05:48:36;;;;;;;7.90;3.00;;;17.10;98.80;;;;;;5025736;28;20103;-71
2022/05/16 05:51:02;;;;;;;9.98;3.00;;;17.10;99.60;;;;;;5016729;28;20049;-71
2022/05/16 05:53:28;;;;;;;11.50;3.60;;;17.20;99.30;;;;;;5014961;28;20418;-71
2022/05/16 05:55:54;;;;;;;9.65;3.40;;;17.20;99.70;;;;;;5024357;28;20197;-71
2022/05/16 05:58:20;;;;;;;9.52;3.55;;;17.20;99.90;;;;;;5023321;28;20285;-71
2022/05/16 06:00:47;;;;;;;8.70;3.35;;;17.20;99.90;;;;;;5021444;28;20041;-71
2022/05/16 06:03:13;;;;;;;10.63;3.90;;;17.20;99.90;;;;;;5025697;28;20029;-71
2022/05/16 06:05:38;;;;;;;12.07;3.50;;;17.20;99.90;;;;;;5023514;28;20052;-71
2022/05/16 06:08:04;;;;;;;10.63;3.65;;;17.20;99.90;;;;;;5015084;28;20095;-71
2022/05/16 06:10:30;;;;;;;6.65;3.17;;;17.10;99.90;;;;;;5022199;28;20069;-70
2022/05/16 06:12:56;;;;;;;7.53;3.22;;;17.10;99.90;;;;;;5024098;28;20185;-70
2022/05/16 06:15:22;;;;;;;10.35;3.35;;;17.10;99.90;;;;;;5021971;28;20053;-70
2022/05/16 06:17:49;;;;;;;10.68;3.63;;;17.10;99.90;;;;;;5023166;28;20029;-71
2022/05/16 06:20:15;;;;;;;9.63;3.05;;;17.10;99.90;;;;;;5017610;28;20055;-71
2022/05/16 06:22:41;;;;;;;5.80;2.85;;;17.10;99.90;;;;;;5017412;28;20684;-71
2022/05/16 06:27:53;;;;;;;8.38;3.22;;;17.10;99.90;;;;;;5024056;28;20067;-71
2022/05/16 06:30:19;;;;;;;10.68;3.45;;;17.10;99.90;;;;;;5020239;28;20716;-71
2022/05/16 06:32:46;;;;;;;15.60;3.40;;;17.10;99.90;;;;;;5022436;28;20033;-71
2022/05/16 06:35:12;;;;;;;16.50;3.97;;;17.20;99.90;;;;;;5021743;28;20072;-71
2022/05/16 06:37:38;;;;;;;9.82;3.60;;;17.30;99.90;;;;;;5024133;28;20045;-71
2022/05/16 06:40:05;;;;;;;9.95;3.13;;;17.50;99.90;;;;;;5023645;28;20044;-71
2022/05/16 06:42:31;;;;;;;9.32;3.05;;;17.60;99.60;;;;;;5027961;28;20025;-71
2022/05/16 06:44:57;;;;;;;11.45;3.72;;;17.80;99.90;;;;;;5025257;28;20669;-71
2022/05/16 06:47:23;;;;;;;8.10;3.20;;;18.10;99.90;;;;;;5024969;28;20079;-72
2022/05/16 06:49:49;;;;;;;8.90;3.50;;;18.30;99.90;;;;;;5017639;28;20029;-72
2022/05/16 06:52:16;;;;;;;10.57;3.42;;;18.60;99.60;;;;;;5026524;28;20071;-72
2022/05/16 06:54:42;;;;;;;8.13;3.22;;;19.00;98.20;;;;;;5023731;28;20079;-72
2022/05/16 06:57:08;;;;;;;11.00;3.00;;;19.10;98.40;;;;;;5024820;28;20502;-71
2022/05/16 06:59:34;;;;;;;7.03;2.83;;;19.30;97.40;;;;;;5019671;28;20466;-71
2022/05/16 07:02:00;;;;;;;8.85;3.28;;;19.50;96.00;;;;;;5020605;28;20522;-72
2022/05/16 07:04:26;;;;;;;7.80;3.13;;;19.70;96.00;;;;;;5017007;28;20034;-71
2022/05/16 07:06:51;;;;;;;9.45;3.30;;;20.00;95.20;;;;;;5024310;28;20033;-72
2022/05/16 07:09:17;;;;;;;7.97;3.00;;;20.00;95.10;;;;;;5023556;28;20036;-71
2022/05/16 07:11:44;;;;;;;8.93;2.92;;;20.30;93.70;;;;;;5023587;28;20660;-71
2022/05/16 07:14:09;;;;;;;9.85;2.97;;;20.50;93.50;;;;;;5022443;28;20029;-71
2022/05/16 07:16:35;;;;;;;9.65;3.08;;;20.70;92.60;;;;;;5021177;28;20037;-72
2022/05/16 07:19:01;;;;;;;7.47;3.00;;;20.70;93.40;;;;;;5024027;28;20025;-71
2022/05/16 07:21:27;;;;;;;8.40;2.83;;;20.60;93.30;;;;;;5022033;28;20037;-71
2022/05/16 07:23:52;;;;;;;7.20;3.03;;;20.70;93.00;;;;;;5012848;28;20465;-71
2022/05/16 07:29:03;;;;;;;7.70;2.63;;;21.00;91.40;;;;;;5013998;28;20052;-71
2022/05/16 07:31:29;;;;;;;8.13;2.80;;;21.30;91.60;;;;;;5020025;28;20417;-71
2022/05/16 07:33:55;;;;;;;7.05;2.33;;;21.70;91.10;;;;;;5025097;28;20022;-71
2022/05/16 07:36:21;;;;;;;6.20;3.00;;;22.00;91.00;;;;;;5021957;28;20104;-71
2022/05/16 07:38:47;;;;;;;9.68;2.50;;;22.10;90.00;;;;;;5022467;28;20080;-71
2022/05/16 07:41:12;;;;;;;6.72;2.70;;;22.10;90.30;;;;;;5023191;28;20092;-72
2022/05/16 07:43:38;;;;;;;6.57;2.63;;;22.20;90.50;;;;;;5026858;28;20413;-72
2022/05/16 07:46:04;;;;;;;9.00;2.90;;;22.30;89.20;;;;;;5028017;28;20033;-72
2022/05/16 07:48:30;;;;;;;7.45;2.83;;;22.70;90.20;;;;;;5027009;28;20064;-71
2022/05/16 07:50:56;;;;;;;6.18;2.60;;;;;;;;;;5021958;28;20098;-70
2022/05/16 07:53:22;;;;;;;6.22;2.67;;;22.70;86.10;;;;;;5024721;28;20025;-70
2022/05/16 07:55:54;;;;;;;7.40;2.90;;;22.70;87.70;;;;;;5025497;28;20033;-71
2022/05/16 07:58:21;;;;;;;6.97;2.85;;;22.70;87.50;;;;;;5020090;28;20033;-70
2022/05/16 08:00:50;;;;;;;13.02;2.95;;;22.80;86.90;;;;;;5024128;28;20033;-70
2022/05/16 08:03:18;;;;;;;10.93;3.08;;;22.80;84.80;;;;;;5021231;28;20033;-71
2022/05/16 08:05:43;;;;;;;6.28;2.88;;;22.80;84.10;;;;;;5024699;28;20022;-71
2022/05/16 08:10:56;;;;;;;8.23;2.70;;;22.80;85.90;;;;;;5014852;28;20040;-72
2022/05/16 08:13:22;;;;;;;10.32;2.85;;;23.00;86.40;;;;;;5014449;28;20124;-72
2022/05/16 08:15:48;;;;;;;8.25;2.83;;;23.10;86.30;;;;;;5033825;28;20026;-72
2022/05/16 08:18:14;;;;;;;7.45;2.88;;;23.00;85.30;;;;;;5018235;28;20083;-71
2022/05/16 08:20:44;;;;;;;9.55;3.08;;;22.80;85.90;;;;;;5027691;28;20059;-71
2022/05/16 08:23:16;;;;;;;17.38;3.58;;;22.60;90.70;;;;;;5017936;28;20022;-72
2022/05/16 08:25:45;;;;;;;9.00;2.78;;;22.30;86.20;;;;;;5021811;28;20417;-75
2022/05/16 08:28:12;;;;;;;5.47;2.75;;;22.30;93.60;;;;;;5025621;28;20043;-75
2022/05/16 08:30:37;;;;;;;8.45;3.25;;;22.20;93.70;;;;;;5021383;28;20041;-74
2022/05/16 08:33:03;;;;;;;9.20;2.85;;;22.10;93.70;;;;;;5030243;28;20572;-74
2022/05/16 08:35:30;;;;;;;7.40;2.60;;;22.10;94.40;;;;;;5025600;28;20037;-75
2022/05/16 08:40:49;;;;;;;8.15;3.20;;;22.20;94.00;;;;;;5027312;28;20527;-75
2022/05/16 08:43:35;;;;;;;14.48;3.28;;;22.10;93.50;;;;;;5026449;28;20095;-74
2022/05/16 08:46:19;;;;;;;13.32;3.22;;;22.10;93.50;;;;;;5025275;28;20104;-76
2022/05/16 08:48:49;;;;;;;15.73;3.30;;;22.10;93.60;;;;;;5023046;28;20033;-75
2022/05/16 08:51:21;;;;;;;8.82;2.92;;;22.00;93.60;;;;;;5024410;28;20091;-75
2022/05/16 08:54:08;;;;;;;10.02;3.45;;;21.80;93.80;;;;;;5027487;28;20032;-76
2022/05/16 08:56:38;;;;;;;12.77;3.40;;;21.60;94.60;;;;;;5019635;28;20049;-74
2022/05/16 08:59:21;;;;;;;8.05;3.00;;;21.50;95.10;;;;;;4312812;28;10000848;-78
2022/05/16 09:01:55;;;;;;;9.80;3.40;;;21.30;95.30;;;;;;5001455;28;20042;-76
2022/05/16 09:04:35;;;;;;;12.88;3.38;;;21.20;95.90;;;;;;4996692;28;20037;-73
2022/05/16 09:07:16;;;;;;;9.57;3.10;;;21.10;96.30;;;;;;5003208;28;20119;-73
2022/05/16 09:09:54;;;;;;;9.52;3.28;;;21.00;96.40;;;;;;5002579;28;20435;-74
2022/05/16 09:12:50;;;;;;;10.77;3.25;;;21.00;97.80;;;;;;5004751;28;20033;-73
2022/05/16 09:15:40;;;;;;;11.43;3.50;;;21.00;97.50;;;;;;5003062;28;20045;-73
2022/05/16 09:18:25;;;;;;;16.85;3.60;;;21.00;97.30;;;;;;5002618;28;20125;-73
2022/05/16 09:21:06;;;;;;;10.32;3.13;;;21.00;98.30;;;;;;4998655;28;20041;-74
2022/05/16 09:23:50;;;;;;;9.77;3.30;;;21.00;98.80;;;;;;5004336;28;20092;-74
2022/05/16 09:26:36;;;;;;;9.65;3.47;;;21.00;99.70;;;;;;5007872;28;20584;-73
2022/05/16 09:29:31;;;;;;;11.07;3.63;;;21.00;99.70;;;;;;5003531;28;20041;-73
2022/05/16 09:32:21;;;;;;;12.45;3.72;;;21.10;99.90;;;;;;5021384;28;20033;-73
2022/05/16 09:34:47;;;;;;;9.75;3.65;;;21.10;99.00;;;;;;5008305;28;20069;-73
2022/05/16 09:37:13;;;;;;;7.28;3.20;;;21.30;99.30;;;;;;5022446;28;20067;-73
2022/05/16 09:39:39;;;;;;;9.30;3.50;;;21.40;97.40;;;;;;5019990;28;20036;-73
2022/05/16 09:42:20;;;;;;;11.82;3.30;;;21.50;97.40;;;;;;5020807;28;20485;-72
2022/05/16 09:44:59;;;;;;;11.43;3.50;;;21.50;97.10;;;;;;5020701;28;20587;-72
2022/05/16 09:47:32;;;;;;;6.07;3.20;;;21.50;96.50;;;;;;5024676;28;20029;-72
2022/05/16 09:50:24;;;;;;;11.38;3.33;;;21.50;95.50;;;;;;5021762;28;20038;-74
2022/05/16 09:53:13;;;;;;;8.73;3.20;;;21.50;95.50;;;;;;5023247;28;20152;-71
2022/05/16 09:55:46;;;;;;;9.32;3.22;;;21.40;95.50;;;;;;5019492;28;20397;-72
2022/05/16 09:58:20;;;;;;;8.88;3.50;;;21.40;96.10;;;;;;5023931;28;20029;-72
2022/05/16 10:00:55;;;;;;;8.32;3.53;;;21.30;95.80;;;;;;5023809;28;20078;-73
2022/05/16 10:03:41;;;;;;;9.40;3.17;;;21.10;96.00;;;;;;5021747;28;20038;-74
2022/05/16 10:06:10;;;;;;;12.07;3.20;;;21.10;96.50;;;;;;5023361;28;20648;-73
2022/05/16 10:08:38;;;;;;;13.75;3.90;;;21.10;97.70;;;;;;5017188;28;20221;-75
2022/05/16 10:11:15;;;;;;;8.63;3.80;;;21.10;97.20;;;;;;5022816;28;20112;-75
2022/05/16 10:13:41;;;;;;;12.73;3.60;;;21.20;96.90;;;;;;5020532;28;20559;-76
2022/05/16 10:16:09;;;;;;;8.77;3.45;;;21.40;97.80;;;;;;5023874;28;20030;-75
2022/05/16 10:18:42;;;;;;;10.90;3.90;;;21.60;97.60;;;;;;5014902;28;20040;-73
2022/05/16 10:21:15;;;;;;;9.55;3.47;;;21.80;97.60;;;;;;5016900;28;20484;-74
2022/05/16 10:23:42;;;;;;;;;;;22.00;97.10;;;;;;5022956;28;20041;-75
2022/05/16 10:26:22;;;;;;;15.18;4.03;;;22.10;97.20;;;;;;5022084;28;19913;-74
2022/05/16 10:28:56;;;;;;;11.82;3.67;;;22.30;97.10;;;;;;5016640;28;20211;-75
2022/05/16 10:34:35;;;;;;;8.35;3.28;;;23.00;95.60;;;;;;5017517;28;20083;-75
2022/05/16 10:37:02;;;;;;;8.43;3.70;;;23.10;94.80;;;;;;5019061;28;20040;-73
2022/05/16 10:39:30;;;;;;;13.75;3.80;;;23.40;95.40;;;;;;5013882;28;20029;-74
2022/05/16 10:42:25;;;;;;;6.93;3.20;;;23.70;95.10;;;;;;5018470;28;20038;-71
2022/05/16 10:45:09;;;;;;;8.57;2.97;;;23.80;94.00;;;;;;5013652;28;20542;-71
2022/05/16 10:48:00;;;;;;;7.25;3.30;;;23.90;95.10;;;;;;5021962;28;20041;-70
2022/05/16 10:50:28;;;;;;;8.52;3.58;;;24.20;95.20;;;;;;5018477;28;20111;-70
2022/05/16 10:52:59;;;;;;;7.70;3.22;;;24.30;94.40;;;;;;5020654;28;20029;-70
2022/05/16 10:55:31;;;;;;;9.70;3.55;;;24.40;93.60;;;;;;5013557;28;20029;-70
2022/05/16 10:58:02;;;;;;;13.13;3.67;;;24.40;94.20;;;;;;5021175;28;20044;-71
2022/05/16 11:00:57;;;;;;;8.45;3.50;;;24.50;92.80;;;;;;5019361;28;20022;-71
2022/05/16 11:03:32;;;;;;;7.80;3.78;;;24.60;93.20;;;;;;5019548;28;20120;-70
2022/05/16 11:06:08;;;;;;;7.38;3.08;;;24.80;94.10;;;;;;5020296;28;20432;-71
2022/05/16 11:08:55;;;;;;;6.25;3.58;;;24.80;94.40;;;;;;5022610;28;20571;-70
2022/05/16 11:11:40;;;;;;;10.88;3.50;;;24.60;93.70;;;;;;5020930;28;20030;-71
2022/05/16 11:14:12;;;;;;;7.18;3.42;;;24.60;94.60;;;;;;5022625;28;20068;-73
2022/05/16 11:16:39;;;;;;;7.47;3.30;;;24.70;94.40;;;;;;5022649;28;20037;-70
2022/05/16 11:19:25;;;;;;;8.85;3.50;;;24.70;94.20;;;;;;5020842;28;20493;-71
2022/05/16 11:22:07;;;;;;;7.03;3.53;;;24.90;93.90;;;;;;5020993;28;20033;-71
2022/05/16 11:24:44;;;;;;;7.50;3.30;;;25.10;95.70;;;;;;5017629;28;20072;-74
2022/05/16 11:27:13;;;;;;;6.85;3.50;;;25.20;95.40;;;;;;5019284;28;20026;-72
2022/05/16 11:30:06;;;;;;;8.38;3.55;;;25.50;95.30;;;;;;5021469;28;20430;-74
2022/05/16 11:32:45;;;;;;;5.07;3.03;;;25.60;95.10;;;;;;5025874;28;20401;-73
2022/05/16 11:35:23;;;;;;;6.82;3.10;;;25.80;93.50;;;;;;5027261;28;20060;-74
2022/05/16 11:37:52;;;;;;;10.07;3.70;;;;;;;;;;5021510;28;20026;-74
2022/05/16 11:40:42;;;;;;;9.93;3.67;;;25.70;84.60;;;;;;5025889;28;20529;-74
2022/05/16 11:43:24;;;;;;;9.00;3.22;;;25.70;85.00;;;;;;5023621;28;20037;-74
2022/05/16 11:46:14;;;;;;;8.57;3.47;;;25.70;86.20;;;;;;5025996;28;20277;-74
2022/05/16 11:48:51;;;;;;;12.43;3.55;;;26.00;86.90;;;;;;5015876;28;20034;-74
2022/05/16 11:51:24;;;;;;;7.28;3.22;;;26.20;85.40;;;;;;5030356;28;20087;-74
2022/05/16 11:53:53;;;;;;;5.47;2.83;;;26.30;83.30;;;;;;5014359;28;20140;-74
2022/05/16 12:02:28;;;;;;;10.40;3.65;;;26.90;82.30;;;;;;5024287;28;20051;-74
2022/05/16 12:05:01;;;;;;;7.53;3.00;;;27.10;79.40;;;;;;5023148;28;20546;-74
2022/05/16 12:07:36;;;;;;;5.78;3.42;;;;;;;;;;5021151;28;20049;-74
2022/05/16 12:10:10;;;;;;;8.20;3.20;;;27.30;97.10;;;;;;5023448;28;20022;-73
2022/05/16 12:12:43;;;;;;;8.50;3.20;;;27.40;97.40;;;;;;5025116;28;20047;-73
2022/05/16 12:15:40;;;;;;;10.73;3.20;;;27.60;99.90;;;;;;5026974;28;20064;-73
2022/05/16 12:18:24;;;;;;;7.32;3.22;;;27.70;98.80;;;;;;5026033;28;20640;-73
2022/05/16 12:20:50;;;;;;;8.43;2.80;;;27.70;97.40;;;;;;5043799;28;20026;-73
2022/05/16 12:23:48;;;;;;;7.38;3.38;;;27.80;96.70;;;;;;5025544;28;20100;-74
2022/05/16 12:26:26;;;;;;;5.95;2.92;;;27.90;96.20;;;;;;5027919;28;20691;-73
2022/05/16 12:29:11;;;;;;;4.63;3.20;;;28.00;95.90;;;;;;5024734;28;20461;-74
2022/05/16 12:31:48;;;;;;;6.72;3.15;;;28.10;94.20;;;;;;5023058;28;20033;-74
2022/05/16 12:34:29;;;;;;;8.05;3.20;;;28.10;94.30;;;;;;5013042;28;20029;-74
2022/05/16 12:37:00;;;;;;;6.13;2.88;;;28.30;94.40;;;;;;5023867;28;20914;-74
2022/05/16 12:39:31;;;;;;;8.35;3.47;;;28.40;93.90;;;;;;5022365;28;20029;-74
2022/05/16 12:42:16;;;;;;;11.10;3.50;;;28.40;93.20;;;;;;5021039;28;20039;-74
2022/05/16 12:44:56;;;;;;;6.45;3.17;;;28.10;93.30;;;;;;5019488;28;20022;-74
2022/05/16 12:47:45;;;;;;;9.43;3.85;;;27.80;96.70;;;;;;5019027;28;20476;-73
2022/05/16 12:50:32;;;;;;;6.47;3.38;;;27.50;96.80;;;;;;5023075;28;20038;-74
2022/05/16 12:53:46;;;;;;;7.40;3.83;;;27.30;97.10;;;;;;5022323;28;20029;-74
2022/05/16 12:56:15;;;;;;;9.90;3.83;;;;;;;;;;5011415;28;20044;-74
2022/05/16 12:58:51;;;;;;;6.95;3.30;;;;;;;;;;5025391;28;20067;-74
2022/05/16 13:01:40;;;;;;;8.48;3.80;;;;;;;;;;5019806;28;20143;-74
2022/05/16 13:04:06;;;;;;;7.95;3.45;;;;;;;;;;4996800;28;20578;-74
2022/05/16 13:06:32;;;;;;;11.07;3.90;;;;;;;;;;5018572;28;20116;-74
2022/05/16 13:09:04;;;;;;;8.15;4.00;;;;;;;;;;5020025;28;20030;-74
2022/05/16 13:11:35;;;;;;;8.48;3.25;;;;;;;;;;5015103;28;20426;-74
2022/05/16 13:14:07;;;;;;;5.50;3.42;;;;;;;;;;5017038;28;20032;-74
2022/05/16 13:16:34;;;;;;;7.30;3.63;;;;;;;;;;5025496;28;20029;-75
2022/05/16 13:19:14;;;;;;;7.38;3.63;;;;;;;;;;5022090;28;20021;-74
2022/05/16 13:21:57;;;;;;;9.52;4.05;;;;;;;;;;5022448;28;22315;-73
2022/05/16 13:24:24;;;;;;;7.45;3.72;;;28.30;72.50;;;;;;5024713;28;20396;-72
2022/05/16 13:29:37;;;;;;;6.20;3.22;;;28.20;76.20;;;;;;5020745;28;20063;-73
2022/05/16 13:32:10;;;;;;;7.45;3.53;;;28.40;75.00;;;;;;5025507;28;20132;-73
2022/05/16 13:34:43;;;;;;;4.70;3.10;;;28.70;74.40;;;;;;5028199;28;20048;-74
2022/05/16 13:37:10;;;;;;;10.32;3.17;;;28.80;73.00;;;;;;5018581;28;20079;-74
2022/05/16 13:39:41;;;;;;;5.47;3.40;;;28.90;72.20;;;;;;5024103;28;20040;-73
2022/05/16 13:42:07;;;;;;;10.35;3.95;;;28.60;73.60;;;;;;5022991;28;20033;-74
2022/05/16 13:44:36;;;;;;;6.20;3.15;;;28.60;73.20;;;;;;5025493;28;20127;-73